Portada
METAR-TAF:

METAR-TAF

Aeropuertos :

Saint-Denis, Reunión

Aeropuerto de Saint Denis-Roland Garros

latitud: 20-53S, longitud: 055-31E, altitud: 21 m

Observación

El informe se hizo hace 33 minutos, a las 06:30 UTC
Viento 12 kt del este-sureste
Temperatura 25°C
Humedad 54%
Presión 1020 hPa
Visibilidad 10 km o más
Escasas nubes a una altura de 2600 ft

METAR: FMEE 240630Z 11012KT 9999 FEW026 25/15 Q1020 NOSIG

Hora: 11:03 (07:03 UTC)

Pronóstico

El informe se hizo hace 14 horas y 3 minutos, a las 17:00 UTC
Pronóstico válido del 23 a las 18 UTC al 24 a las 24 UTC
Viento 12 kt del sureste
Visibilidad 10 km o más
Escasas nubes a una altura de 2600 ft
A partir de las 24 a las 0500 UTC
Viento 20 kt del este
Visibilidad 10 km o más
Nubes dispersas a una altura de 2600 ft
Evolucionando progresivamente
del 24 a las 15 UTC al 24 a las 17 UTC
Viento 10 kt del sur-sureste

TAF: FMEE 231700Z 2318/2424 14012KT 9999 FEW026 FM240500 10020KT 9999 SCT026 BECMG 2415/2417 16010KT

Observaciones y pronósticos meteorológicos de más de 4000 aeropuertos (mensajes METAR y TAF).

Los puntos amarillos y rojos representan las estaciones disponibles.

Ponga el ratón en el punto deseado para ver el nombre de la estación.

Haga clic para ver las observaciones y los pronósticos meteorológicos.

Para cambiar el mapa : haga clic en los botones verdes con una cruz de color negro para hacer un zoom, en el botón verde con un guión para alejar o en las flechas verdes para mapas adyacentes.


METAR-TAF: